Time;durP1;ratioP1;P1;durP2;ratioP2;P2;SDS_P1;SDS_P2;PMS_P1;PMS_P2;Temp;Humidity;BMP_temperature;BMP_pressure;BME280_temperature;BME280_humidity;BME280_pressure;Samples;Min_cycle;Max_cycle;Signal;HPM_P1;HPM_P2
2021/12/31 00:01:19;;;;;;;2.65;0.25;;;26.70;99.90;;;;;;5059281;28;20025;-68
2021/12/31 00:03:48;;;;;;;2.45;0.45;;;26.80;99.90;;;;;;5057766;28;20024;-68
2021/12/31 00:06:16;;;;;;;3.50;0.55;;;26.80;99.90;;;;;;5041749;28;20017;-68
2021/12/31 00:08:43;;;;;;;3.78;0.73;;;26.80;99.90;;;;;;5063653;28;20025;-68
2021/12/31 00:11:10;;;;;;;1.58;0.50;;;26.80;99.90;;;;;;5060389;28;20029;-68
2021/12/31 00:13:37;;;;;;;2.45;0.30;;;26.80;99.90;;;;;;5047294;28;20089;-68
2021/12/31 00:16:05;;;;;;;1.92;0.30;;;26.50;99.90;;;;;;5050494;28;20032;-68
2021/12/31 00:18:32;;;;;;;2.97;0.30;;;26.40;99.90;;;;;;5061682;28;20040;-69
2021/12/31 00:21:00;;;;;;;4.85;0.40;;;26.30;99.90;;;;;;5059367;28;20100;-68
2021/12/31 00:23:27;;;;;;;4.18;0.35;;;26.40;99.90;;;;;;5065215;28;20046;-68
2021/12/31 00:25:55;;;;;;;4.75;0.52;;;26.50;99.90;;;;;;5064411;28;20075;-68
2021/12/31 00:28:22;;;;;;;3.60;0.30;;;26.50;99.90;;;;;;5065193;28;20087;-68
2021/12/31 00:30:54;;;;;;;2.38;0.30;;;26.60;99.90;;;;;;5060542;28;20035;-68
2021/12/31 00:33:22;;;;;;;3.20;0.30;;;26.80;99.90;;;;;;5041450;28;20076;-69
2021/12/31 00:35:50;;;;;;;1.92;0.40;;;27.10;99.90;;;;;;5045799;28;20018;-68
2021/12/31 00:38:18;;;;;;;4.22;0.17;;;26.90;99.90;;;;;;5063146;28;20029;-68
2021/12/31 00:40:45;;;;;;;2.63;0.17;;;26.90;99.90;;;;;;5063242;28;20029;-68
2021/12/31 00:43:13;;;;;;;3.10;0.45;;;26.70;99.90;;;;;;5048650;28;20113;-68
2021/12/31 00:45:43;;;;;;;3.38;0.25;;;26.70;99.90;;;;;;5045140;28;20034;-70
2021/12/31 00:48:13;;;;;;;5.38;0.40;;;27.00;99.90;;;;;;5064196;28;20048;-68
2021/12/31 00:50:41;;;;;;;5.63;1.00;;;26.70;99.90;;;;;;5062754;28;20049;-68
2021/12/31 00:53:09;;;;;;;2.55;0.40;;;26.80;99.90;;;;;;5063898;28;20021;-67
2021/12/31 00:55:36;;;;;;;1.27;0.20;;;26.70;99.90;;;;;;5042431;28;20048;-68
2021/12/31 00:58:05;;;;;;;3.17;0.20;;;26.90;99.90;;;;;;5060983;28;20025;-68
2021/12/31 01:00:33;;;;;;;1.70;0.28;;;26.80;99.90;;;;;;5063056;28;20024;-68
2021/12/31 01:03:00;;;;;;;2.17;0.20;;;26.70;99.90;;;;;;5062346;28;20045;-68
2021/12/31 01:05:28;;;;;;;3.80;0.32;;;26.60;99.90;;;;;;5061017;28;20040;-68
2021/12/31 01:07:55;;;;;;;2.70;0.32;;;26.60;99.90;;;;;;5059622;28;20604;-69
2021/12/31 01:10:25;;;;;;;4.10;0.50;;;26.70;99.90;;;;;;5060679;28;20049;-69
2021/12/31 01:12:53;;;;;;;3.83;0.60;;;26.60;99.90;;;;;;5057297;28;20029;-69
2021/12/31 01:15:40;;;;;;;2.33;0.40;;;26.80;99.90;;;;;;5058762;28;20033;-69
2021/12/31 01:20:39;;;;;;;1.67;0.20;;;26.50;99.90;;;;;;5043006;28;20029;-67
2021/12/31 01:23:08;;;;;;;2.40;0.38;;;26.60;99.90;;;;;;5066104;28;20036;-68
2021/12/31 01:25:36;;;;;;;5.05;0.30;;;26.60;99.90;;;;;;5066956;28;20028;-68
2021/12/31 01:28:05;;;;;;;2.72;0.30;;;26.80;99.90;;;;;;5059368;28;20127;-68
2021/12/31 01:30:32;;;;;;;1.98;0.50;;;27.00;99.90;;;;;;5055464;28;20021;-68
2021/12/31 01:32:59;;;;;;;1.48;0.30;;;27.30;99.90;;;;;;5060025;28;20127;-68
2021/12/31 01:35:27;;;;;;;6.90;0.32;;;27.40;99.90;;;;;;5062786;28;20051;-68
2021/12/31 01:37:54;;;;;;;4.75;0.38;;;27.10;99.90;;;;;;5060118;28;20025;-69
2021/12/31 01:40:21;;;;;;;3.53;0.32;;;27.20;99.90;;;;;;5061873;28;20424;-68
2021/12/31 01:42:48;;;;;;;1.17;0.40;;;27.30;99.90;;;;;;5063132;28;20087;-69
2021/12/31 01:45:20;;;;;;;2.83;0.30;;;27.30;99.90;;;;;;5064715;28;20052;-68
2021/12/31 01:50:21;;;;;;;;;;;27.00;99.90;;;;;;5045753;28;20088;-68
2021/12/31 01:52:48;;;;;;;1.55;0.17;;;27.20;99.90;;;;;;5062539;28;19908;-69
2021/12/31 01:55:16;;;;;;;6.57;0.30;;;27.50;99.90;;;;;;5061834;28;20060;-69
2021/12/31 01:57:44;;;;;;;2.17;0.20;;;27.80;99.90;;;;;;5065337;28;20086;-68
2021/12/31 02:00:12;;;;;;;1.25;0.15;;;27.20;99.90;;;;;;5066589;28;20100;-69
2021/12/31 02:02:46;;;;;;;3.70;0.30;;;27.30;99.90;;;;;;5061942;28;20092;-68
2021/12/31 02:05:14;;;;;;;1.50;0.17;;;27.40;99.90;;;;;;5063554;28;20047;-68
2021/12/31 02:07:42;;;;;;;0.43;0.13;;;27.60;99.90;;;;;;5057703;28;20045;-69
2021/12/31 02:10:10;;;;;;;1.85;0.20;;;27.80;99.90;;;;;;5064325;28;20032;-68
2021/12/31 02:12:46;;;;;;;4.13;0.52;;;27.50;99.90;;;;;;5069527;28;20033;-68
2021/12/31 02:15:19;;;;;;;1.27;0.20;;;27.40;99.90;;;;;;5067838;28;20017;-69
2021/12/31 02:17:48;;;;;;;1.67;0.20;;;27.30;99.90;;;;;;5063076;28;20031;-68
2021/12/31 02:20:17;;;;;;;3.10;0.20;;;27.30;99.90;;;;;;5063178;28;20088;-68
2021/12/31 02:22:54;;;;;;;1.20;0.30;;;27.60;99.90;;;;;;5061545;28;20386;-68
2021/12/31 02:25:24;;;;;;;1.15;0.08;;;27.60;99.90;;;;;;5064540;28;20035;-69
2021/12/31 02:27:52;;;;;;;2.28;0.25;;;27.40;99.90;;;;;;5049185;28;20033;-68
2021/12/31 02:30:19;;;;;;;1.10;0.30;;;27.40;99.90;;;;;;5044444;28;20141;-68
2021/12/31 02:32:47;;;;;;;2.05;0.35;;;27.50;99.90;;;;;;5061437;28;20062;-69
2021/12/31 02:35:14;;;;;;;1.45;0.10;;;27.60;99.90;;;;;;5062941;28;20025;-69
2021/12/31 02:37:42;;;;;;;1.73;0.30;;;27.60;99.90;;;;;;5069790;28;20127;-68
2021/12/31 02:40:13;;;;;;;2.40;0.40;;;27.40;99.90;;;;;;5069521;28;20672;-69
2021/12/31 02:42:41;;;;;;;1.52;0.30;;;27.50;99.90;;;;;;5063960;28;20387;-68
2021/12/31 02:45:11;;;;;;;1.55;0.22;;;27.40;99.90;;;;;;5061033;28;20032;-68
2021/12/31 02:47:43;;;;;;;1.85;0.40;;;27.40;99.90;;;;;;5063095;28;20050;-69
2021/12/31 02:50:17;;;;;;;1.23;0.20;;;27.50;99.90;;;;;;5046503;28;20021;-69
2021/12/31 02:52:45;;;;;;;1.98;0.30;;;27.60;99.90;;;;;;5066343;28;20039;-68
2021/12/31 02:55:13;;;;;;;1.73;0.20;;;27.30;99.90;;;;;;5067440;28;20055;-69
2021/12/31 02:57:41;;;;;;;3.35;0.60;;;27.30;99.90;;;;;;5070761;28;20033;-69
2021/12/31 03:00:09;;;;;;;1.92;0.60;;;27.30;99.90;;;;;;5072880;28;20090;-70
2021/12/31 03:02:41;;;;;;;2.40;0.30;;;27.30;99.90;;;;;;5065549;28;20037;-69
2021/12/31 03:05:09;;;;;;;3.38;0.20;;;27.40;99.90;;;;;;5056576;28;20043;-68
2021/12/31 03:07:38;;;;;;;2.22;0.60;;;27.30;99.90;;;;;;5061822;28;20025;-68
2021/12/31 03:10:06;;;;;;;2.20;0.32;;;27.40;99.90;;;;;;5057359;28;20042;-69
2021/12/31 03:12:34;;;;;;;3.08;0.20;;;27.80;99.90;;;;;;5062403;28;20056;-69
2021/12/31 03:15:02;;;;;;;4.32;0.35;;;27.70;99.90;;;;;;5066667;28;20531;-69
2021/12/31 03:17:29;;;;;;;1.13;0.30;;;27.60;99.90;;;;;;5066208;28;20039;-69
2021/12/31 03:19:59;;;;;;;2.83;0.40;;;27.20;99.90;;;;;;5063772;28;20037;-69
2021/12/31 03:22:27;;;;;;;2.58;0.25;;;27.30;99.90;;;;;;5064214;28;20029;-69
2021/12/31 03:24:54;;;;;;;1.88;0.20;;;26.80;99.90;;;;;;5064787;28;20097;-69
2021/12/31 03:27:21;;;;;;;5.63;0.30;;;27.00;99.90;;;;;;5049774;28;20030;-69
2021/12/31 03:29:48;;;;;;;1.88;0.28;;;27.20;99.90;;;;;;5042326;28;20030;-68
2021/12/31 03:32:16;;;;;;;4.50;0.50;;;27.30;99.90;;;;;;5053751;28;20101;-69
2021/12/31 03:34:43;;;;;;;4.28;0.38;;;27.20;99.90;;;;;;5064096;28;20389;-69
2021/12/31 03:37:10;;;;;;;4.75;0.63;;;27.10;99.90;;;;;;5063926;28;20039;-68
2021/12/31 03:39:38;;;;;;;3.22;0.28;;;27.10;99.90;;;;;;5068484;28;20021;-69
2021/12/31 03:42:05;;;;;;;1.90;0.25;;;26.80;99.90;;;;;;5063447;28;20048;-68
2021/12/31 03:44:32;;;;;;;4.97;0.47;;;26.60;99.90;;;;;;5067479;28;20029;-68
2021/12/31 03:47:00;;;;;;;1.15;0.20;;;26.70;99.90;;;;;;5052747;28;20594;-68
2021/12/31 03:49:27;;;;;;;3.80;0.35;;;26.70;99.90;;;;;;5043648;28;20025;-68
2021/12/31 03:51:54;;;;;;;4.90;0.30;;;26.60;99.90;;;;;;5053886;28;20105;-68
2021/12/31 03:54:21;;;;;;;4.00;0.30;;;26.50;99.90;;;;;;5066941;28;20029;-68
2021/12/31 03:56:49;;;;;;;4.22;0.30;;;26.50;99.90;;;;;;5053218;28;20115;-69
2021/12/31 03:59:16;;;;;;;6.00;0.32;;;26.60;99.90;;;;;;5054198;28;20037;-68
2021/12/31 04:01:43;;;;;;;3.80;0.35;;;26.60;99.90;;;;;;5058725;28;20025;-70
2021/12/31 04:04:12;;;;;;;2.40;0.47;;;26.70;99.90;;;;;;5045080;28;20108;-68
2021/12/31 04:06:40;;;;;;;3.25;0.20;;;26.90;99.90;;;;;;5045581;28;20056;-68
2021/12/31 04:09:08;;;;;;;3.60;0.40;;;26.80;99.90;;;;;;5048428;28;20036;-69
2021/12/31 04:11:35;;;;;;;4.05;0.68;;;26.60;99.90;;;;;;5060370;28;20033;-68
2021/12/31 04:14:03;;;;;;;5.78;0.40;;;26.40;99.90;;;;;;5062974;28;20047;-69
2021/12/31 04:16:33;;;;;;;4.72;0.20;;;26.40;99.90;;;;;;5060786;28;20427;-68
2021/12/31 04:19:01;;;;;;;3.60;0.32;;;26.30;99.90;;;;;;5060649;28;20037;-68
2021/12/31 04:21:30;;;;;;;4.63;0.50;;;26.40;99.90;;;;;;5063067;28;20467;-68
2021/12/31 04:24:07;;;;;;;3.42;0.43;;;26.10;99.90;;;;;;5062197;28;20064;-68
2021/12/31 04:26:35;;;;;;;2.33;0.40;;;26.20;99.90;;;;;;5060321;28;20419;-68
2021/12/31 04:29:02;;;;;;;4.32;0.43;;;26.30;99.90;;;;;;5059291;28;20026;-68
2021/12/31 04:31:29;;;;;;;3.22;0.60;;;26.40;99.90;;;;;;5054512;28;20035;-69
2021/12/31 04:33:59;;;;;;;4.65;0.40;;;26.60;99.90;;;;;;5057541;28;20451;-70
2021/12/31 04:36:26;;;;;;;4.50;0.50;;;26.60;99.90;;;;;;5052568;28;20024;-68
2021/12/31 04:38:53;;;;;;;3.72;0.45;;;26.60;99.90;;;;;;5058198;28;20104;-69
2021/12/31 04:41:20;;;;;;;4.30;0.70;;;26.30;99.90;;;;;;5057523;28;20037;-69
2021/12/31 04:43:48;;;;;;;3.58;0.70;;;26.40;99.90;;;;;;5057846;28;20469;-69
2021/12/31 04:46:15;;;;;;;2.97;0.38;;;26.30;99.90;;;;;;5054404;28;20028;-68
2021/12/31 04:48:42;;;;;;;4.72;0.52;;;26.30;99.90;;;;;;5057148;28;20030;-69
2021/12/31 04:51:09;;;;;;;4.53;0.80;;;26.30;99.90;;;;;;5038171;28;20381;-68
2021/12/31 04:53:37;;;;;;;2.20;0.20;;;26.50;99.90;;;;;;5056669;28;20097;-69
2021/12/31 04:56:04;;;;;;;2.72;0.50;;;26.40;99.90;;;;;;5056143;28;20544;-68
2021/12/31 04:58:31;;;;;;;3.78;0.68;;;26.30;99.90;;;;;;5043486;28;20022;-69
2021/12/31 05:00:59;;;;;;;4.60;0.60;;;26.40;99.90;;;;;;5037808;28;20021;-68
2021/12/31 05:03:29;;;;;;;10.10;0.90;;;26.40;99.90;;;;;;5056231;28;20029;-69
2021/12/31 05:05:56;;;;;;;6.47;0.95;;;26.40;99.90;;;;;;5055061;28;20023;-69
2021/12/31 05:08:23;;;;;;;3.67;0.40;;;26.30;99.90;;;;;;5056881;28;20096;-70
2021/12/31 05:10:51;;;;;;;4.72;0.40;;;26.20;99.90;;;;;;5054826;28;20025;-69
2021/12/31 05:13:19;;;;;;;5.88;0.95;;;26.10;99.90;;;;;;5054374;28;20030;-69
2021/12/31 05:15:50;;;;;;;3.25;0.93;;;26.10;99.90;;;;;;5054037;28;20024;-69
2021/12/31 05:18:17;;;;;;;5.28;0.40;;;26.30;99.90;;;;;;5053313;28;20033;-69
2021/12/31 05:20:45;;;;;;;4.53;0.90;;;26.40;99.90;;;;;;5053469;28;20035;-69
2021/12/31 05:23:12;;;;;;;5.97;0.77;;;26.40;99.90;;;;;;5053864;28;20443;-69
2021/12/31 05:25:39;;;;;;;3.67;0.30;;;26.40;99.90;;;;;;5060294;28;20036;-69
2021/12/31 05:28:07;;;;;;;3.78;0.60;;;26.10;99.90;;;;;;5057965;28;20466;-69
2021/12/31 05:30:34;;;;;;;4.13;0.57;;;26.20;99.90;;;;;;5060558;28;20052;-69
2021/12/31 05:33:01;;;;;;;5.45;0.80;;;26.10;99.90;;;;;;5060195;28;20024;-68
2021/12/31 05:35:29;;;;;;;5.72;0.68;;;26.10;99.90;;;;;;5059574;28;20032;-68
2021/12/31 05:37:57;;;;;;;3.78;0.63;;;26.20;99.90;;;;;;5059640;28;20052;-68
2021/12/31 05:40:26;;;;;;;4.63;0.75;;;26.20;99.90;;;;;;5062128;28;20513;-69
2021/12/31 05:42:54;;;;;;;3.15;0.40;;;26.10;99.90;;;;;;5056304;28;20032;-69
2021/12/31 05:45:21;;;;;;;6.75;0.80;;;26.00;99.90;;;;;;5063973;28;20021;-68
2021/12/31 05:47:49;;;;;;;7.13;0.50;;;25.90;99.90;;;;;;5045366;28;20049;-68
2021/12/31 05:50:28;;;;;;;3.80;0.60;;;25.90;99.90;;;;;;5052697;28;20029;-68
2021/12/31 05:53:00;;;;;;;6.60;0.75;;;25.90;99.90;;;;;;5059867;28;20029;-69
2021/12/31 05:55:28;;;;;;;5.40;0.95;;;25.90;99.90;;;;;;5060097;28;20033;-68
2021/12/31 05:57:57;;;;;;;5.50;0.60;;;25.90;99.90;;;;;;5061105;28;20078;-69
2021/12/31 06:00:26;;;;;;;3.53;0.80;;;25.80;99.90;;;;;;5060246;28;20053;-68
2021/12/31 06:02:53;;;;;;;3.42;0.70;;;25.80;99.90;;;;;;5061042;28;20033;-69
2021/12/31 06:05:20;;;;;;;7.35;0.85;;;26.00;99.90;;;;;;5058587;28;20021;-69
2021/12/31 06:07:47;;;;;;;5.57;0.70;;;26.00;99.90;;;;;;5062146;28;20079;-68
2021/12/31 06:10:15;;;;;;;3.90;0.40;;;25.80;99.90;;;;;;5060254;28;20021;-69
2021/12/31 06:12:43;;;;;;;5.57;0.50;;;26.10;99.90;;;;;;5056935;28;20033;-68
2021/12/31 06:15:11;;;;;;;3.60;0.80;;;26.10;99.90;;;;;;5058485;28;20037;-67
2021/12/31 06:17:38;;;;;;;9.15;0.50;;;26.10;99.90;;;;;;5043195;28;20057;-68
2021/12/31 06:20:06;;;;;;;7.32;1.20;;;26.10;99.90;;;;;;5039306;28;20025;-68
2021/12/31 06:22:34;;;;;;;4.97;0.80;;;26.20;99.90;;;;;;5042426;28;20034;-68
2021/12/31 06:25:02;;;;;;;3.28;0.60;;;26.20;99.90;;;;;;5041523;28;20021;-68
2021/12/31 06:27:29;;;;;;;6.57;0.90;;;26.20;99.90;;;;;;5056472;28;20025;-68
2021/12/31 06:29:57;;;;;;;4.13;0.40;;;25.90;99.90;;;;;;5061652;28;20025;-68
2021/12/31 06:32:24;;;;;;;4.13;0.85;;;26.00;99.90;;;;;;5062255;28;20021;-68
2021/12/31 06:34:51;;;;;;;4.65;1.08;;;25.70;99.90;;;;;;5064044;28;20045;-68
2021/12/31 06:37:18;;;;;;;6.25;0.82;;;25.60;99.90;;;;;;5058138;28;20021;-67
2021/12/31 06:39:46;;;;;;;6.05;0.70;;;25.80;99.90;;;;;;5041977;28;20104;-68
2021/12/31 06:42:14;;;;;;;7.70;1.42;;;26.20;99.90;;;;;;5056923;28;20083;-68
2021/12/31 06:44:41;;;;;;;6.38;0.68;;;26.10;99.90;;;;;;5058939;28;20024;-68
2021/12/31 06:47:09;;;;;;;6.68;0.80;;;26.70;99.90;;;;;;5057783;28;20041;-68
2021/12/31 06:49:36;;;;;;;5.10;0.70;;;26.80;99.90;;;;;;5060630;28;20024;-69
2021/12/31 06:52:04;;;;;;;6.30;0.90;;;26.80;99.90;;;;;;5059740;28;20017;-68
2021/12/31 06:54:31;;;;;;;9.25;0.65;;;27.00;99.90;;;;;;5059922;28;20048;-68
2021/12/31 06:56:59;;;;;;;8.98;1.13;;;26.70;99.90;;;;;;5053272;28;20507;-67
2021/12/31 06:59:26;;;;;;;4.90;0.50;;;26.10;99.90;;;;;;5059019;28;20029;-67
2021/12/31 07:01:53;;;;;;;8.88;0.73;;;25.60;99.90;;;;;;5061680;28;20034;-69
2021/12/31 07:04:21;;;;;;;8.43;0.80;;;25.20;99.90;;;;;;5055164;28;20076;-67
2021/12/31 07:06:48;;;;;;;4.30;1.15;;;25.00;99.90;;;;;;5056371;28;20029;-67
2021/12/31 07:09:15;;;;;;;4.93;0.68;;;25.00;99.90;;;;;;5061532;28;20548;-67
2021/12/31 07:11:43;;;;;;;7.05;0.80;;;24.90;99.90;;;;;;5062633;28;20056;-68
2021/12/31 07:14:10;;;;;;;4.90;0.75;;;25.10;99.90;;;;;;5060840;28;20500;-68
2021/12/31 07:16:37;;;;;;;7.22;1.42;;;25.10;99.90;;;;;;5056306;28;20477;-68
2021/12/31 07:19:04;;;;;;;5.88;0.68;;;25.00;99.90;;;;;;5061425;28;20037;-68
2021/12/31 07:21:32;;;;;;;11.40;1.38;;;24.80;99.90;;;;;;5037831;28;20030;-68
2021/12/31 07:23:59;;;;;;;8.25;1.02;;;25.30;99.90;;;;;;5040633;28;20033;-68
2021/12/31 07:26:26;;;;;;;7.75;0.90;;;26.60;99.90;;;;;;5044908;28;20115;-67
2021/12/31 07:28:54;;;;;;;5.22;0.93;;;27.20;99.90;;;;;;5060442;28;20473;-67
2021/12/31 07:31:21;;;;;;;5.18;0.80;;;26.60;99.90;;;;;;5059373;28;20013;-67
2021/12/31 07:33:48;;;;;;;8.85;0.80;;;25.50;99.90;;;;;;5059653;28;20049;-69
2021/12/31 07:36:16;;;;;;;8.50;1.63;;;25.20;99.90;;;;;;5047800;28;20029;-68
2021/12/31 07:38:49;;;;;;;5.53;0.82;;;25.00;99.90;;;;;;5056302;28;20484;-68
2021/12/31 07:41:16;;;;;;;4.05;1.33;;;24.90;99.90;;;;;;5051311;28;20554;-68
2021/12/31 07:43:43;;;;;;;7.07;1.17;;;24.70;99.90;;;;;;5056352;28;20040;-68
2021/12/31 07:46:12;;;;;;;7.15;1.48;;;24.90;99.90;;;;;;5057264;28;20021;-67
2021/12/31 07:48:39;;;;;;;7.15;0.80;;;24.90;99.90;;;;;;5057641;28;20095;-69
2021/12/31 07:51:07;;;;;;;8.43;1.05;;;25.00;99.90;;;;;;5045794;28;20025;-68
2021/12/31 07:53:34;;;;;;;5.15;1.02;;;24.90;99.90;;;;;;5058609;28;20063;-68
2021/12/31 07:56:01;;;;;;;7.38;1.08;;;25.20;99.90;;;;;;5055901;28;20099;-67
2021/12/31 07:58:28;;;;;;;8.10;1.05;;;25.60;99.90;;;;;;5040063;28;20060;-68
2021/12/31 08:00:56;;;;;;;7.35;1.00;;;24.80;99.90;;;;;;5039113;28;20078;-67
2021/12/31 08:03:23;;;;;;;8.07;1.85;;;24.40;99.90;;;;;;5039638;28;20033;-68
2021/12/31 08:05:50;;;;;;;8.48;1.00;;;24.30;99.90;;;;;;5054233;28;20029;-67
2021/12/31 08:08:19;;;;;;;3.58;1.05;;;24.30;99.90;;;;;;5039367;28;20025;-68
2021/12/31 08:10:47;;;;;;;6.03;1.40;;;24.20;99.90;;;;;;5038704;28;20021;-67
2021/12/31 08:13:15;;;;;;;9.70;1.50;;;24.20;99.90;;;;;;5054512;28;20024;-68
2021/12/31 08:15:42;;;;;;;5.75;1.33;;;24.20;99.90;;;;;;5057156;28;20033;-67
2021/12/31 08:18:10;;;;;;;9.00;1.25;;;24.00;99.90;;;;;;5054360;28;20047;-70
2021/12/31 08:20:37;;;;;;;8.25;0.93;;;23.90;99.90;;;;;;5056125;28;20452;-69
2021/12/31 08:23:09;;;;;;;7.15;0.93;;;23.90;99.90;;;;;;5057642;28;20025;-69
2021/12/31 08:25:40;;;;;;;8.63;1.17;;;23.80;99.90;;;;;;5055375;28;20111;-69
2021/12/31 08:28:08;;;;;;;10.23;1.10;;;23.80;99.90;;;;;;5039247;28;20041;-69
2021/12/31 08:30:35;;;;;;;7.75;1.23;;;23.80;99.90;;;;;;5043867;28;20033;-69
2021/12/31 08:33:03;;;;;;;12.98;1.73;;;23.70;99.90;;;;;;5055427;28;20041;-69
2021/12/31 08:35:30;;;;;;;12.20;1.23;;;23.70;99.90;;;;;;5055729;28;20032;-70
2021/12/31 08:37:58;;;;;;;8.23;1.10;;;23.60;99.90;;;;;;5056844;28;20033;-69
2021/12/31 08:40:25;;;;;;;7.30;0.82;;;23.60;99.90;;;;;;5059630;28;20108;-70
2021/12/31 08:42:53;;;;;;;7.38;1.17;;;23.50;99.90;;;;;;5057032;28;20040;-69
2021/12/31 08:45:20;;;;;;;6.70;1.25;;;23.50;99.90;;;;;;5040893;28;20032;-70
2021/12/31 08:47:48;;;;;;;7.55;0.88;;;23.50;99.90;;;;;;5054042;28;20120;-70
2021/12/31 08:50:15;;;;;;;7.25;1.10;;;23.40;99.90;;;;;;5055854;28;20021;-69
2021/12/31 08:52:42;;;;;;;8.77;1.00;;;23.40;99.90;;;;;;5051758;28;20055;-70
2021/12/31 08:55:11;;;;;;;9.65;1.45;;;23.40;99.90;;;;;;5055836;28;20057;-70
2021/12/31 08:57:39;;;;;;;8.55;1.20;;;23.40;99.90;;;;;;5053410;28;20033;-70
2021/12/31 09:00:07;;;;;;;15.00;2.05;;;23.40;99.90;;;;;;5057507;28;20032;-70
2021/12/31 09:02:42;;;;;;;5.85;1.15;;;23.40;99.90;;;;;;5054597;28;20057;-69
2021/12/31 09:05:09;;;;;;;5.32;0.68;;;23.30;99.90;;;;;;5042547;28;20030;-70
2021/12/31 09:07:37;;;;;;;5.93;1.30;;;23.30;99.90;;;;;;5055326;28;20032;-69
2021/12/31 09:10:05;;;;;;;5.40;0.85;;;23.30;99.90;;;;;;5059694;28;20029;-69
2021/12/31 09:12:32;;;;;;;6.30;0.88;;;23.20;99.90;;;;;;5058931;28;20025;-70
2021/12/31 09:14:59;;;;;;;6.68;1.15;;;23.20;99.90;;;;;;5057790;28;20381;-69
2021/12/31 09:17:27;;;;;;;2.25;0.77;;;23.20;99.90;;;;;;5058096;28;20512;-69
2021/12/31 09:19:54;;;;;;;10.60;1.08;;;23.10;99.90;;;;;;5059969;28;20033;-69
2021/12/31 09:22:22;;;;;;;9.30;0.85;;;23.10;99.90;;;;;;5044687;28;20038;-69
2021/12/31 09:24:49;;;;;;;12.45;0.93;;;23.10;99.90;;;;;;5051814;28;20033;-69
2021/12/31 09:27:17;;;;;;;7.95;1.10;;;23.10;99.90;;;;;;5057653;28;20545;-69
2021/12/31 09:29:45;;;;;;;8.82;0.95;;;23.00;99.90;;;;;;5057998;28;20036;-70
2021/12/31 09:32:12;;;;;;;11.38;1.20;;;23.00;99.90;;;;;;5058262;28;20024;-69
2021/12/31 09:34:43;;;;;;;6.45;1.77;;;23.00;99.90;;;;;;5056914;28;20107;-69
2021/12/31 09:37:11;;;;;;;6.78;1.05;;;23.00;99.90;;;;;;5058935;28;20021;-69
2021/12/31 09:39:39;;;;;;;9.00;0.93;;;23.00;99.90;;;;;;5046421;28;20029;-68
2021/12/31 09:42:07;;;;;;;10.38;1.15;;;23.00;99.90;;;;;;5048747;28;20072;-68
2021/12/31 09:44:37;;;;;;;8.68;1.05;;;23.00;99.90;;;;;;5058776;28;20044;-69
2021/12/31 09:47:10;;;;;;;7.35;1.15;;;23.00;99.90;;;;;;5054505;28;20044;-68
2021/12/31 09:49:39;;;;;;;10.43;1.73;;;23.00;99.90;;;;;;5059640;28;20086;-68
2021/12/31 09:52:12;;;;;;;7.05;1.10;;;23.00;99.90;;;;;;5060928;28;20029;-69
2021/12/31 09:54:48;;;;;;;6.97;1.27;;;22.90;99.90;;;;;;5059415;28;20031;-69
2021/12/31 09:57:17;;;;;;;10.68;0.95;;;22.90;99.90;;;;;;5057593;28;20492;-69
2021/12/31 09:59:46;;;;;;;5.63;1.00;;;22.90;99.90;;;;;;5060302;28;20029;-68
2021/12/31 10:02:15;;;;;;;10.40;1.30;;;22.90;99.90;;;;;;5053365;28;20063;-68
2021/12/31 10:04:52;;;;;;;10.30;1.63;;;22.90;99.90;;;;;;5056008;28;20412;-69
2021/12/31 10:07:21;;;;;;;9.27;0.77;;;22.90;99.90;;;;;;5058966;28;20036;-69
2021/12/31 10:10:16;;;;;;;9.65;1.23;;;22.90;99.90;;;;;;5060818;28;20047;-69
2021/12/31 10:12:52;;;;;;;8.80;1.80;;;22.90;99.90;;;;;;5054055;28;20056;-69
2021/12/31 10:15:24;;;;;;;10.32;1.30;;;22.90;99.90;;;;;;5060937;28;20083;-69
2021/12/31 10:17:52;;;;;;;9.60;1.25;;;22.80;99.90;;;;;;5056106;28;20079;-68
2021/12/31 10:20:21;;;;;;;10.43;1.65;;;22.80;99.90;;;;;;5058157;28;20047;-68
2021/12/31 10:22:48;;;;;;;10.38;1.05;;;22.80;99.90;;;;;;5058786;28;20032;-69
2021/12/31 10:25:21;;;;;;;7.47;1.10;;;22.80;99.90;;;;;;5059583;28;20079;-68
2021/12/31 10:27:50;;;;;;;8.15;1.75;;;22.70;99.90;;;;;;5047790;28;20055;-69
2021/12/31 10:30:26;;;;;;;8.93;1.38;;;22.70;99.90;;;;;;5039697;28;20497;-69
2021/12/31 10:32:54;;;;;;;7.28;1.42;;;22.80;99.90;;;;;;5046126;28;20490;-68
2021/12/31 10:35:22;;;;;;;11.30;1.35;;;22.80;99.90;;;;;;5042216;28;20029;-69
2021/12/31 10:37:58;;;;;;;6.45;1.02;;;22.80;99.90;;;;;;5057677;28;20386;-69
2021/12/31 10:40:46;;;;;;;9.82;1.20;;;22.70;99.90;;;;;;5062083;28;20059;-69
2021/12/31 10:43:22;;;;;;;9.68;1.15;;;22.70;99.90;;;;;;5040917;28;20041;-69
2021/12/31 10:46:03;;;;;;;7.35;1.38;;;22.70;99.90;;;;;;5041172;28;20433;-68
2021/12/31 10:48:50;;;;;;;11.73;1.33;;;22.80;99.90;;;;;;5058402;28;20049;-69
2021/12/31 10:51:19;;;;;;;17.48;1.75;;;22.70;99.90;;;;;;5050217;28;20036;-69
2021/12/31 10:53:52;;;;;;;8.35;1.30;;;22.70;99.90;;;;;;5059047;28;20045;-69
2021/12/31 10:56:19;;;;;;;13.18;1.38;;;22.70;99.90;;;;;;5061355;28;20091;-69
2021/12/31 10:58:59;;;;;;;12.25;1.55;;;22.70;99.90;;;;;;5059715;28;20029;-69
2021/12/31 11:01:26;;;;;;;9.13;1.38;;;22.70;99.90;;;;;;5057534;28;20025;-69
2021/12/31 11:03:54;;;;;;;14.57;2.17;;;22.70;99.90;;;;;;5057916;28;20025;-69
2021/12/31 11:06:23;;;;;;;14.55;1.77;;;22.70;99.90;;;;;;5057404;28;20029;-69
2021/12/31 11:08:51;;;;;;;13.20;2.15;;;22.70;99.90;;;;;;5059378;28;20108;-69
2021/12/31 11:11:21;;;;;;;16.30;1.98;;;22.70;99.90;;;;;;5057339;28;20120;-69
2021/12/31 11:13:50;;;;;;;13.60;1.70;;;22.70;99.90;;;;;;5043434;28;20040;-69
2021/12/31 11:16:17;;;;;;;12.23;1.88;;;22.60;99.90;;;;;;5042762;28;20421;-69
2021/12/31 11:18:45;;;;;;;12.50;1.30;;;22.60;99.90;;;;;;5057396;28;20021;-69
2021/12/31 11:21:14;;;;;;;14.65;1.92;;;22.60;99.90;;;;;;5056225;28;20186;-68
2021/12/31 11:23:44;;;;;;;8.88;1.55;;;22.60;99.90;;;;;;5057507;28;20024;-68
2021/12/31 11:26:13;;;;;;;11.65;1.00;;;22.60;99.90;;;;;;5044993;28;20540;-68
2021/12/31 11:28:43;;;;;;;7.65;1.27;;;22.60;99.90;;;;;;5061085;28;20095;-69
2021/12/31 11:31:19;;;;;;;7.88;1.67;;;22.60;99.90;;;;;;5062153;28;20026;-68
2021/12/31 11:34:09;;;;;;;15.52;1.90;;;22.60;99.90;;;;;;5055047;28;20048;-69
2021/12/31 11:36:54;;;;;;;9.70;1.15;;;22.70;99.90;;;;;;5044466;28;20029;-68
2021/12/31 11:39:28;;;;;;;10.20;1.02;;;22.60;99.90;;;;;;5057240;28;20527;-68
2021/12/31 11:42:01;;;;;;;9.63;1.33;;;22.60;99.90;;;;;;5055633;28;20056;-68
2021/12/31 11:44:29;;;;;;;6.57;0.85;;;22.60;99.90;;;;;;5056863;28;20493;-68
2021/12/31 11:47:17;;;;;;;9.27;1.23;;;22.60;99.90;;;;;;5049329;28;20437;-68
2021/12/31 11:49:46;;;;;;;10.60;1.30;;;22.60;99.90;;;;;;5039007;28;20555;-68
2021/12/31 11:52:26;;;;;;;14.45;1.92;;;22.60;99.90;;;;;;5038221;28;20029;-69
2021/12/31 11:55:19;;;;;;;8.15;1.90;;;22.50;99.90;;;;;;5039224;28;20359;-69
2021/12/31 11:57:46;;;;;;;11.63;1.35;;;22.50;99.90;;;;;;5053336;28;20058;-68
2021/12/31 12:00:27;;;;;;;16.23;1.80;;;22.50;99.90;;;;;;5052788;28;20021;-68
2021/12/31 12:02:54;;;;;;;5.57;1.15;;;22.50;99.90;;;;;;5056434;28;20054;-68
2021/12/31 12:05:25;;;;;;;10.23;1.10;;;22.50;99.90;;;;;;5048632;28;20063;-69
2021/12/31 12:07:54;;;;;;;13.32;1.25;;;22.50;99.90;;;;;;5049880;28;20059;-68
2021/12/31 12:10:27;;;;;;;16.13;1.42;;;22.50;99.90;;;;;;5057265;28;20017;-68
2021/12/31 12:13:18;;;;;;;7.88;1.23;;;22.40;99.90;;;;;;5040832;28;20071;-69
2021/12/31 12:15:46;;;;;;;9.18;1.42;;;22.40;99.90;;;;;;5037204;28;20079;-68
2021/12/31 12:18:14;;;;;;;10.18;1.45;;;22.40;99.90;;;;;;5055775;28;20050;-68
2021/12/31 12:20:42;;;;;;;9.07;1.02;;;22.40;99.90;;;;;;5046469;28;20022;-69
2021/12/31 12:23:15;;;;;;;12.35;2.15;;;22.40;99.90;;;;;;5054867;28;20025;-68
2021/12/31 12:25:43;;;;;;;7.32;1.45;;;22.40;99.90;;;;;;5057452;28;20025;-68
2021/12/31 12:28:13;;;;;;;8.05;1.27;;;22.40;99.90;;;;;;5054937;28;20029;-68
2021/12/31 12:30:47;;;;;;;12.23;1.67;;;22.40;99.90;;;;;;5056433;28;20025;-69
2021/12/31 12:33:22;;;;;;;11.38;2.17;;;22.30;99.90;;;;;;5054049;28;20027;-68
2021/12/31 12:35:52;;;;;;;8.90;1.08;;;22.30;99.90;;;;;;5054781;28;20359;-68
2021/12/31 12:38:26;;;;;;;7.30;1.17;;;22.30;99.90;;;;;;5060853;28;20017;-68
2021/12/31 12:41:10;;;;;;;13.02;2.13;;;22.30;99.90;;;;;;5050118;28;20046;-68
2021/12/31 12:43:46;;;;;;;6.40;0.93;;;22.30;99.90;;;;;;5054802;28;20051;-68
2021/12/31 12:46:17;;;;;;;8.98;1.30;;;22.30;99.90;;;;;;5054410;28;20025;-68
2021/12/31 12:48:50;;;;;;;17.70;2.45;;;22.30;99.90;;;;;;5058616;28;20022;-68
2021/12/31 12:51:31;;;;;;;7.63;1.30;;;22.30;99.90;;;;;;5057064;28;20052;-69
2021/12/31 12:54:04;;;;;;;8.40;1.08;;;22.30;99.90;;;;;;5058555;28;20377;-68
2021/12/31 12:56:31;;;;;;;9.33;1.77;;;22.30;99.90;;;;;;5051356;28;20072;-69
2021/12/31 12:59:01;;;;;;;10.68;1.27;;;22.20;99.90;;;;;;5040260;28;20269;-68
2021/12/31 13:01:36;;;;;;;7.28;1.00;;;22.20;99.90;;;;;;5043662;28;20128;-68